sensor_id;sensor_type;location;lat;lon;timestamp;P1;durP1;ratioP1;P2;durP2;ratioP2
2838;SDS011;1427;48.510;9.060;2023-12-22T00:01:09;44.77;;;1.23;;
2838;SDS011;1427;48.510;9.060;2023-12-22T00:03:38;45.60;;;1.60;;
2838;SDS011;1427;48.510;9.060;2023-12-22T00:06:06;44.87;;;1.30;;
2838;SDS011;1427;48.510;9.060;2023-12-22T00:08:34;45.20;;;1.93;;
2838;SDS011;1427;48.510;9.060;2023-12-22T00:11:04;45.03;;;1.50;;
2838;SDS011;1427;48.510;9.060;2023-12-22T00:13:32;45.10;;;1.50;;
2838;SDS011;1427;48.510;9.060;2023-12-22T00:16:01;49.67;;;2.10;;
2838;SDS011;1427;48.510;9.060;2023-12-22T00:18:29;44.93;;;1.30;;
2838;SDS011;1427;48.510;9.060;2023-12-22T00:20:58;44.90;;;1.67;;
2838;SDS011;1427;48.510;9.060;2023-12-22T00:23:26;45.00;;;1.30;;
2838;SDS011;1427;48.510;9.060;2023-12-22T00:25:54;44.90;;;1.40;;
2838;SDS011;1427;48.510;9.060;2023-12-22T00:28:24;50.53;;;2.00;;
2838;SDS011;1427;48.510;9.060;2023-12-22T00:30:52;45.10;;;1.30;;
2838;SDS011;1427;48.510;9.060;2023-12-22T00:33:20;45.10;;;1.60;;
2838;SDS011;1427;48.510;9.060;2023-12-22T00:35:48;46.83;;;2.03;;
2838;SDS011;1427;48.510;9.060;2023-12-22T00:38:16;44.80;;;1.40;;
2838;SDS011;1427;48.510;9.060;2023-12-22T00:40:44;45.83;;;1.50;;
2838;SDS011;1427;48.510;9.060;2023-12-22T00:43:12;45.43;;;1.70;;
2838;SDS011;1427;48.510;9.060;2023-12-22T00:45:42;46.17;;;1.63;;
2838;SDS011;1427;48.510;9.060;2023-12-22T00:48:10;45.07;;;1.53;;
2838;SDS011;1427;48.510;9.060;2023-12-22T00:50:38;48.87;;;2.17;;
2838;SDS011;1427;48.510;9.060;2023-12-22T00:53:06;46.47;;;1.93;;
2838;SDS011;1427;48.510;9.060;2023-12-22T00:55:34;45.90;;;1.80;;
2838;SDS011;1427;48.510;9.060;2023-12-22T00:58:03;45.13;;;1.60;;
2838;SDS011;1427;48.510;9.060;2023-12-22T01:00:31;45.77;;;1.40;;
2838;SDS011;1427;48.510;9.060;2023-12-22T01:03:00;45.47;;;1.80;;
2838;SDS011;1427;48.510;9.060;2023-12-22T01:05:29;44.87;;;1.40;;
2838;SDS011;1427;48.510;9.060;2023-12-22T01:07:57;45.00;;;1.20;;
2838;SDS011;1427;48.510;9.060;2023-12-22T01:10:25;45.03;;;1.60;;
2838;SDS011;1427;48.510;9.060;2023-12-22T01:12:54;47.27;;;1.67;;
2838;SDS011;1427;48.510;9.060;2023-12-22T01:15:24;44.77;;;1.30;;
2838;SDS011;1427;48.510;9.060;2023-12-22T01:17:52;46.87;;;2.43;;
2838;SDS011;1427;48.510;9.060;2023-12-22T01:20:21;44.70;;;1.23;;
2838;SDS011;1427;48.510;9.060;2023-12-22T01:22:49;44.67;;;1.30;;
2838;SDS011;1427;48.510;9.060;2023-12-22T01:25:18;46.00;;;2.07;;
2838;SDS011;1427;48.510;9.060;2023-12-22T01:27:46;44.70;;;1.30;;
2838;SDS011;1427;48.510;9.060;2023-12-22T01:30:16;47.27;;;1.90;;
2838;SDS011;1427;48.510;9.060;2023-12-22T01:32:44;45.17;;;1.50;;
2838;SDS011;1427;48.510;9.060;2023-12-22T01:35:13;44.87;;;1.70;;
2838;SDS011;1427;48.510;9.060;2023-12-22T01:37:42;45.10;;;1.40;;
2838;SDS011;1427;48.510;9.060;2023-12-22T01:40:12;45.10;;;1.40;;
2838;SDS011;1427;48.510;9.060;2023-12-22T01:42:42;44.90;;;1.40;;
2838;SDS011;1427;48.510;9.060;2023-12-22T01:45:11;44.77;;;1.33;;
2838;SDS011;1427;48.510;9.060;2023-12-22T01:47:39;44.97;;;1.77;;
2838;SDS011;1427;48.510;9.060;2023-12-22T01:50:08;45.23;;;1.57;;
2838;SDS011;1427;48.510;9.060;2023-12-22T01:52:38;51.67;;;2.33;;
2838;SDS011;1427;48.510;9.060;2023-12-22T01:55:10;44.90;;;1.40;;
2838;SDS011;1427;48.510;9.060;2023-12-22T01:57:40;44.30;;;1.40;;
2838;SDS011;1427;48.510;9.060;2023-12-22T02:00:10;44.97;;;1.60;;
2838;SDS011;1427;48.510;9.060;2023-12-22T02:02:39;45.10;;;1.57;;
2838;SDS011;1427;48.510;9.060;2023-12-22T02:05:09;44.80;;;1.20;;
2838;SDS011;1427;48.510;9.060;2023-12-22T02:07:39;45.00;;;1.67;;
2838;SDS011;1427;48.510;9.060;2023-12-22T02:10:10;49.80;;;1.80;;
2838;SDS011;1427;48.510;9.060;2023-12-22T02:12:40;45.03;;;1.40;;
2838;SDS011;1427;48.510;9.060;2023-12-22T02:15:10;45.13;;;1.30;;
2838;SDS011;1427;48.510;9.060;2023-12-22T02:17:39;44.87;;;1.53;;
2838;SDS011;1427;48.510;9.060;2023-12-22T02:20:13;46.67;;;2.30;;
2838;SDS011;1427;48.510;9.060;2023-12-22T02:22:43;44.53;;;1.67;;
2838;SDS011;1427;48.510;9.060;2023-12-22T02:25:11;46.33;;;1.80;;
2838;SDS011;1427;48.510;9.060;2023-12-22T02:27:40;47.20;;;1.67;;
2838;SDS011;1427;48.510;9.060;2023-12-22T02:30:14;44.70;;;1.53;;
2838;SDS011;1427;48.510;9.060;2023-12-22T02:32:48;45.80;;;1.87;;
2838;SDS011;1427;48.510;9.060;2023-12-22T02:35:19;45.07;;;1.47;;
2838;SDS011;1427;48.510;9.060;2023-12-22T02:37:51;49.83;;;1.70;;
2838;SDS011;1427;48.510;9.060;2023-12-22T02:40:21;45.87;;;1.60;;
2838;SDS011;1427;48.510;9.060;2023-12-22T02:42:51;45.10;;;1.53;;
2838;SDS011;1427;48.510;9.060;2023-12-22T02:45:20;49.40;;;1.60;;
2838;SDS011;1427;48.510;9.060;2023-12-22T02:47:48;45.13;;;1.70;;
2838;SDS011;1427;48.510;9.060;2023-12-22T02:50:16;44.77;;;1.50;;
2838;SDS011;1427;48.510;9.060;2023-12-22T02:52:44;45.00;;;1.43;;
2838;SDS011;1427;48.510;9.060;2023-12-22T02:55:14;45.17;;;2.13;;
2838;SDS011;1427;48.510;9.060;2023-12-22T02:57:42;44.90;;;1.43;;
2838;SDS011;1427;48.510;9.060;2023-12-22T03:00:11;45.57;;;1.90;;
2838;SDS011;1427;48.510;9.060;2023-12-22T03:02:39;44.30;;;1.47;;
2838;SDS011;1427;48.510;9.060;2023-12-22T03:05:07;45.07;;;1.40;;
2838;SDS011;1427;48.510;9.060;2023-12-22T03:07:36;45.20;;;1.27;;
2838;SDS011;1427;48.510;9.060;2023-12-22T03:10:04;45.23;;;1.40;;
2838;SDS011;1427;48.510;9.060;2023-12-22T03:12:34;44.83;;;1.70;;
2838;SDS011;1427;48.510;9.060;2023-12-22T03:15:02;45.17;;;1.37;;
2838;SDS011;1427;48.510;9.060;2023-12-22T03:17:31;45.03;;;1.50;;
2838;SDS011;1427;48.510;9.060;2023-12-22T03:19:59;44.87;;;1.60;;
2838;SDS011;1427;48.510;9.060;2023-12-22T03:22:27;44.77;;;1.33;;
2838;SDS011;1427;48.510;9.060;2023-12-22T03:24:55;44.80;;;1.50;;
2838;SDS011;1427;48.510;9.060;2023-12-22T03:27:23;45.17;;;2.30;;
2838;SDS011;1427;48.510;9.060;2023-12-22T03:29:53;44.77;;;1.30;;
2838;SDS011;1427;48.510;9.060;2023-12-22T03:32:21;44.97;;;1.40;;
2838;SDS011;1427;48.510;9.060;2023-12-22T03:34:49;50.03;;;2.47;;
2838;SDS011;1427;48.510;9.060;2023-12-22T03:37:17;48.30;;;1.37;;
2838;SDS011;1427;48.510;9.060;2023-12-22T03:39:45;45.10;;;1.53;;
2838;SDS011;1427;48.510;9.060;2023-12-22T03:42:13;45.23;;;1.50;;
2838;SDS011;1427;48.510;9.060;2023-12-22T03:44:41;44.70;;;1.20;;
2838;SDS011;1427;48.510;9.060;2023-12-22T03:47:11;45.10;;;1.60;;
2838;SDS011;1427;48.510;9.060;2023-12-22T03:49:39;44.50;;;1.47;;
2838;SDS011;1427;48.510;9.060;2023-12-22T03:52:07;44.70;;;1.20;;
2838;SDS011;1427;48.510;9.060;2023-12-22T03:54:35;45.03;;;1.50;;
2838;SDS011;1427;48.510;9.060;2023-12-22T03:57:03;45.20;;;1.70;;
2838;SDS011;1427;48.510;9.060;2023-12-22T03:59:31;45.83;;;1.53;;
2838;SDS011;1427;48.510;9.060;2023-12-22T04:01:59;45.13;;;1.50;;
2838;SDS011;1427;48.510;9.060;2023-12-22T04:04:30;45.30;;;1.50;;
2838;SDS011;1427;48.510;9.060;2023-12-22T04:06:58;45.13;;;1.53;;
2838;SDS011;1427;48.510;9.060;2023-12-22T04:09:26;45.37;;;1.60;;
2838;SDS011;1427;48.510;9.060;2023-12-22T04:11:54;44.73;;;1.63;;
2838;SDS011;1427;48.510;9.060;2023-12-22T04:14:22;45.20;;;1.30;;
2838;SDS011;1427;48.510;9.060;2023-12-22T04:16:50;45.27;;;1.87;;
2838;SDS011;1427;48.510;9.060;2023-12-22T04:19:19;45.30;;;1.70;;
2838;SDS011;1427;48.510;9.060;2023-12-22T04:21:49;44.97;;;1.40;;
2838;SDS011;1427;48.510;9.060;2023-12-22T04:24:17;45.50;;;1.67;;
2838;SDS011;1427;48.510;9.060;2023-12-22T04:26:45;45.03;;;1.50;;
2838;SDS011;1427;48.510;9.060;2023-12-22T04:29:13;45.17;;;1.40;;
2838;SDS011;1427;48.510;9.060;2023-12-22T04:31:42;46.50;;;2.30;;
2838;SDS011;1427;48.510;9.060;2023-12-22T04:34:12;45.03;;;1.37;;
2838;SDS011;1427;48.510;9.060;2023-12-22T04:36:42;49.40;;;1.80;;
2838;SDS011;1427;48.510;9.060;2023-12-22T04:39:11;45.17;;;1.60;;
2838;SDS011;1427;48.510;9.060;2023-12-22T04:41:39;45.00;;;1.50;;
2838;SDS011;1427;48.510;9.060;2023-12-22T04:44:07;74.87;;;2.13;;
2838;SDS011;1427;48.510;9.060;2023-12-22T04:46:35;45.30;;;1.50;;
2838;SDS011;1427;48.510;9.060;2023-12-22T04:49:03;45.10;;;2.00;;
2838;SDS011;1427;48.510;9.060;2023-12-22T04:51:32;45.17;;;1.50;;
2838;SDS011;1427;48.510;9.060;2023-12-22T04:54:00;44.87;;;1.60;;
2838;SDS011;1427;48.510;9.060;2023-12-22T04:56:29;45.27;;;1.47;;
2838;SDS011;1427;48.510;9.060;2023-12-22T04:58:57;44.70;;;1.33;;
2838;SDS011;1427;48.510;9.060;2023-12-22T05:01:25;45.43;;;1.87;;
2838;SDS011;1427;48.510;9.060;2023-12-22T05:03:54;45.10;;;1.47;;
2838;SDS011;1427;48.510;9.060;2023-12-22T05:06:22;44.77;;;1.40;;
2838;SDS011;1427;48.510;9.060;2023-12-22T05:08:50;45.07;;;1.63;;
2838;SDS011;1427;48.510;9.060;2023-12-22T05:11:18;46.47;;;1.40;;
2838;SDS011;1427;48.510;9.060;2023-12-22T05:13:48;53.93;;;2.90;;
2838;SDS011;1427;48.510;9.060;2023-12-22T05:16:16;50.57;;;4.73;;
2838;SDS011;1427;48.510;9.060;2023-12-22T05:18:44;45.80;;;1.80;;
2838;SDS011;1427;48.510;9.060;2023-12-22T05:21:12;46.00;;;1.80;;
2838;SDS011;1427;48.510;9.060;2023-12-22T05:23:41;45.33;;;1.90;;
2838;SDS011;1427;48.510;9.060;2023-12-22T05:26:09;44.97;;;1.60;;
2838;SDS011;1427;48.510;9.060;2023-12-22T05:28:43;45.77;;;2.00;;
2838;SDS011;1427;48.510;9.060;2023-12-22T05:31:12;58.60;;;2.23;;
2838;SDS011;1427;48.510;9.060;2023-12-22T05:33:40;45.57;;;2.23;;
2838;SDS011;1427;48.510;9.060;2023-12-22T05:36:08;45.30;;;1.43;;
2838;SDS011;1427;48.510;9.060;2023-12-22T05:38:37;45.27;;;1.60;;
2838;SDS011;1427;48.510;9.060;2023-12-22T05:41:05;46.00;;;1.50;;
2838;SDS011;1427;48.510;9.060;2023-12-22T05:43:33;44.90;;;1.50;;
2838;SDS011;1427;48.510;9.060;2023-12-22T05:46:02;45.83;;;1.53;;
2838;SDS011;1427;48.510;9.060;2023-12-22T05:48:31;45.60;;;1.83;;
2838;SDS011;1427;48.510;9.060;2023-12-22T05:51:01;47.27;;;2.10;;
2838;SDS011;1427;48.510;9.060;2023-12-22T05:53:33;44.93;;;1.30;;
2838;SDS011;1427;48.510;9.060;2023-12-22T05:56:01;47.73;;;2.27;;
2838;SDS011;1427;48.510;9.060;2023-12-22T05:58:30;47.67;;;3.57;;
2838;SDS011;1427;48.510;9.060;2023-12-22T06:00:58;45.27;;;1.73;;
2838;SDS011;1427;48.510;9.060;2023-12-22T06:03:27;45.10;;;1.47;;
2838;SDS011;1427;48.510;9.060;2023-12-22T06:05:56;46.00;;;1.70;;
2838;SDS011;1427;48.510;9.060;2023-12-22T06:08:24;44.83;;;1.37;;
2838;SDS011;1427;48.510;9.060;2023-12-22T06:10:52;45.83;;;1.67;;
2838;SDS011;1427;48.510;9.060;2023-12-22T06:13:21;44.90;;;1.10;;
2838;SDS011;1427;48.510;9.060;2023-12-22T06:15:50;46.70;;;1.43;;
2838;SDS011;1427;48.510;9.060;2023-12-22T06:18:18;44.90;;;1.50;;
2838;SDS011;1427;48.510;9.060;2023-12-22T06:20:46;44.60;;;1.20;;
2838;SDS011;1427;48.510;9.060;2023-12-22T06:23:16;44.70;;;1.30;;
2838;SDS011;1427;48.510;9.060;2023-12-22T06:25:44;45.63;;;1.80;;
2838;SDS011;1427;48.510;9.060;2023-12-22T06:28:14;48.20;;;1.43;;
2838;SDS011;1427;48.510;9.060;2023-12-22T06:30:44;45.83;;;1.47;;
2838;SDS011;1427;48.510;9.060;2023-12-22T06:33:13;45.57;;;1.60;;
2838;SDS011;1427;48.510;9.060;2023-12-22T06:35:41;46.40;;;2.30;;
2838;SDS011;1427;48.510;9.060;2023-12-22T06:38:11;44.80;;;1.30;;
2838;SDS011;1427;48.510;9.060;2023-12-22T06:40:40;46.40;;;1.60;;
2838;SDS011;1427;48.510;9.060;2023-12-22T06:43:08;47.90;;;2.20;;
2838;SDS011;1427;48.510;9.060;2023-12-22T06:45:36;45.37;;;1.43;;
2838;SDS011;1427;48.510;9.060;2023-12-22T06:48:06;44.70;;;1.40;;
2838;SDS011;1427;48.510;9.060;2023-12-22T06:50:36;45.07;;;1.60;;
2838;SDS011;1427;48.510;9.060;2023-12-22T06:53:06;44.87;;;1.20;;
2838;SDS011;1427;48.510;9.060;2023-12-22T06:55:48;45.37;;;1.63;;
2838;SDS011;1427;48.510;9.060;2023-12-22T06:58:16;45.10;;;1.43;;
2838;SDS011;1427;48.510;9.060;2023-12-22T07:00:48;46.90;;;1.53;;
2838;SDS011;1427;48.510;9.060;2023-12-22T07:03:16;48.40;;;2.43;;
2838;SDS011;1427;48.510;9.060;2023-12-22T07:05:45;46.40;;;1.53;;
2838;SDS011;1427;48.510;9.060;2023-12-22T07:08:13;51.77;;;1.77;;
2838;SDS011;1427;48.510;9.060;2023-12-22T07:10:41;49.50;;;1.97;;
2838;SDS011;1427;48.510;9.060;2023-12-22T07:13:12;45.10;;;1.33;;
2838;SDS011;1427;48.510;9.060;2023-12-22T07:15:40;44.87;;;1.17;;
2838;SDS011;1427;48.510;9.060;2023-12-22T07:18:09;46.00;;;1.87;;
2838;SDS011;1427;48.510;9.060;2023-12-22T07:20:37;45.10;;;1.37;;
2838;SDS011;1427;48.510;9.060;2023-12-22T07:23:05;44.60;;;1.20;;
2838;SDS011;1427;48.510;9.060;2023-12-22T07:25:35;47.00;;;1.70;;
2838;SDS011;1427;48.510;9.060;2023-12-22T07:28:05;45.37;;;1.80;;
2838;SDS011;1427;48.510;9.060;2023-12-22T07:30:34;45.00;;;1.20;;
2838;SDS011;1427;48.510;9.060;2023-12-22T07:33:03;44.93;;;1.40;;
2838;SDS011;1427;48.510;9.060;2023-12-22T07:35:31;46.23;;;1.50;;
2838;SDS011;1427;48.510;9.060;2023-12-22T07:38:00;58.17;;;1.60;;
2838;SDS011;1427;48.510;9.060;2023-12-22T07:40:29;45.20;;;1.50;;
2838;SDS011;1427;48.510;9.060;2023-12-22T07:42:57;45.17;;;1.30;;
2838;SDS011;1427;48.510;9.060;2023-12-22T07:45:26;50.33;;;1.90;;
2838;SDS011;1427;48.510;9.060;2023-12-22T07:47:56;46.07;;;1.47;;
2838;SDS011;1427;48.510;9.060;2023-12-22T07:50:26;45.77;;;1.70;;
2838;SDS011;1427;48.510;9.060;2023-12-22T07:52:54;44.57;;;1.30;;
2838;SDS011;1427;48.510;9.060;2023-12-22T07:55:22;52.33;;;3.30;;
2838;SDS011;1427;48.510;9.060;2023-12-22T07:57:50;55.63;;;2.00;;
2838;SDS011;1427;48.510;9.060;2023-12-22T08:00:18;47.50;;;1.67;;
2838;SDS011;1427;48.510;9.060;2023-12-22T08:02:46;44.83;;;1.57;;
2838;SDS011;1427;48.510;9.060;2023-12-22T08:05:16;44.83;;;1.60;;
2838;SDS011;1427;48.510;9.060;2023-12-22T08:07:45;50.50;;;2.00;;
2838;SDS011;1427;48.510;9.060;2023-12-22T08:10:14;46.60;;;1.70;;
2838;SDS011;1427;48.510;9.060;2023-12-22T08:12:42;46.10;;;2.23;;
2838;SDS011;1427;48.510;9.060;2023-12-22T08:15:10;44.87;;;1.37;;
2838;SDS011;1427;48.510;9.060;2023-12-22T08:17:51;45.93;;;2.17;;
2838;SDS011;1427;48.510;9.060;2023-12-22T08:20:21;44.80;;;1.30;;
2838;SDS011;1427;48.510;9.060;2023-12-22T08:22:57;45.80;;;1.83;;
2838;SDS011;1427;48.510;9.060;2023-12-22T08:25:31;45.70;;;2.60;;
2838;SDS011;1427;48.510;9.060;2023-12-22T08:28:00;44.77;;;1.30;;
2838;SDS011;1427;48.510;9.060;2023-12-22T08:30:28;45.33;;;1.80;;
2838;SDS011;1427;48.510;9.060;2023-12-22T08:32:56;44.97;;;1.67;;
2838;SDS011;1427;48.510;9.060;2023-12-22T08:35:25;53.63;;;5.40;;
2838;SDS011;1427;48.510;9.060;2023-12-22T08:37:54;48.70;;;7.70;;
2838;SDS011;1427;48.510;9.060;2023-12-22T08:40:22;51.83;;;3.90;;
2838;SDS011;1427;48.510;9.060;2023-12-22T08:42:53;46.77;;;3.43;;
2838;SDS011;1427;48.510;9.060;2023-12-22T08:45:26;46.57;;;4.17;;
2838;SDS011;1427;48.510;9.060;2023-12-22T08:47:55;52.77;;;5.47;;
2838;SDS011;1427;48.510;9.060;2023-12-22T08:50:25;53.83;;;5.90;;
2838;SDS011;1427;48.510;9.060;2023-12-22T08:52:53;47.47;;;5.47;;
2838;SDS011;1427;48.510;9.060;2023-12-22T08:55:21;46.70;;;4.03;;
2838;SDS011;1427;48.510;9.060;2023-12-22T08:57:50;47.17;;;4.47;;
2838;SDS011;1427;48.510;9.060;2023-12-22T09:00:27;46.67;;;4.20;;
2838;SDS011;1427;48.510;9.060;2023-12-22T09:02:55;50.70;;;4.23;;
2838;SDS011;1427;48.510;9.060;2023-12-22T09:05:25;47.87;;;4.17;;
2838;SDS011;1427;48.510;9.060;2023-12-22T09:07:54;47.50;;;5.20;;
2838;SDS011;1427;48.510;9.060;2023-12-22T09:10:22;48.37;;;6.00;;
2838;SDS011;1427;48.510;9.060;2023-12-22T09:12:50;46.67;;;4.40;;
2838;SDS011;1427;48.510;9.060;2023-12-22T09:15:18;46.50;;;3.93;;
2838;SDS011;1427;48.510;9.060;2023-12-22T09:17:46;50.13;;;6.93;;
2838;SDS011;1427;48.510;9.060;2023-12-22T09:20:15;49.43;;;4.80;;
2838;SDS011;1427;48.510;9.060;2023-12-22T09:22:45;47.27;;;4.10;;
2838;SDS011;1427;48.510;9.060;2023-12-22T09:25:13;46.50;;;4.07;;
2838;SDS011;1427;48.510;9.060;2023-12-22T09:27:41;49.40;;;6.43;;
2838;SDS011;1427;48.510;9.060;2023-12-22T09:30:09;47.80;;;6.20;;
2838;SDS011;1427;48.510;9.060;2023-12-22T09:32:38;47.97;;;6.27;;
2838;SDS011;1427;48.510;9.060;2023-12-22T09:35:06;53.07;;;4.30;;
2838;SDS011;1427;48.510;9.060;2023-12-22T09:37:34;48.10;;;6.40;;
2838;SDS011;1427;48.510;9.060;2023-12-22T09:40:06;48.10;;;4.00;;
2838;SDS011;1427;48.510;9.060;2023-12-22T09:42:37;46.53;;;3.80;;
2838;SDS011;1427;48.510;9.060;2023-12-22T09:45:10;46.37;;;3.93;;
2838;SDS011;1427;48.510;9.060;2023-12-22T09:47:39;46.10;;;3.77;;
2838;SDS011;1427;48.510;9.060;2023-12-22T09:50:10;46.77;;;3.80;;
2838;SDS011;1427;48.510;9.060;2023-12-22T09:52:40;47.50;;;5.37;;
2838;SDS011;1427;48.510;9.060;2023-12-22T09:55:12;48.77;;;7.90;;
2838;SDS011;1427;48.510;9.060;2023-12-22T09:57:41;46.30;;;3.73;;
2838;SDS011;1427;48.510;9.060;2023-12-22T10:00:09;46.50;;;3.93;;
2838;SDS011;1427;48.510;9.060;2023-12-22T10:02:39;46.73;;;3.50;;
2838;SDS011;1427;48.510;9.060;2023-12-22T10:05:08;47.10;;;4.10;;
2838;SDS011;1427;48.510;9.060;2023-12-22T10:07:36;50.27;;;4.60;;
2838;SDS011;1427;48.510;9.060;2023-12-22T10:10:05;46.77;;;4.03;;
2838;SDS011;1427;48.510;9.060;2023-12-22T10:12:37;46.30;;;3.93;;
2838;SDS011;1427;48.510;9.060;2023-12-22T10:15:07;46.07;;;3.43;;
2838;SDS011;1427;48.510;9.060;2023-12-22T10:17:36;47.37;;;4.33;;
2838;SDS011;1427;48.510;9.060;2023-12-22T10:20:05;46.47;;;3.73;;
2838;SDS011;1427;48.510;9.060;2023-12-22T10:22:34;45.67;;;3.30;;
2838;SDS011;1427;48.510;9.060;2023-12-22T10:25:03;47.03;;;4.90;;
2838;SDS011;1427;48.510;9.060;2023-12-22T10:27:33;47.57;;;4.07;;
2838;SDS011;1427;48.510;9.060;2023-12-22T10:30:05;46.50;;;4.00;;
2838;SDS011;1427;48.510;9.060;2023-12-22T10:32:34;46.63;;;4.50;;
2838;SDS011;1427;48.510;9.060;2023-12-22T10:35:07;46.30;;;3.63;;
2838;SDS011;1427;48.510;9.060;2023-12-22T10:37:36;46.60;;;4.20;;
2838;SDS011;1427;48.510;9.060;2023-12-22T10:40:05;45.53;;;2.73;;
2838;SDS011;1427;48.510;9.060;2023-12-22T10:42:35;46.20;;;3.40;;
2838;SDS011;1427;48.510;9.060;2023-12-22T10:45:06;48.30;;;4.90;;
2838;SDS011;1427;48.510;9.060;2023-12-22T10:47:34;50.10;;;4.17;;
2838;SDS011;1427;48.510;9.060;2023-12-22T10:50:03;47.33;;;4.70;;
2838;SDS011;1427;48.510;9.060;2023-12-22T10:52:31;46.10;;;3.53;;
2838;SDS011;1427;48.510;9.060;2023-12-22T10:54:59;49.40;;;5.57;;
2838;SDS011;1427;48.510;9.060;2023-12-22T10:57:29;46.80;;;3.70;;
2838;SDS011;1427;48.510;9.060;2023-12-22T11:00:09;46.23;;;3.77;;
2838;SDS011;1427;48.510;9.060;2023-12-22T11:02:43;46.57;;;4.00;;
2838;SDS011;1427;48.510;9.060;2023-12-22T11:05:13;45.87;;;3.57;;
2838;SDS011;1427;48.510;9.060;2023-12-22T11:07:46;59.00;;;3.87;;
2838;SDS011;1427;48.510;9.060;2023-12-22T11:10:18;46.77;;;4.57;;
2838;SDS011;1427;48.510;9.060;2023-12-22T11:12:48;46.67;;;4.27;;
2838;SDS011;1427;48.510;9.060;2023-12-22T11:15:18;48.43;;;3.93;;
2838;SDS011;1427;48.510;9.060;2023-12-22T11:17:49;46.20;;;3.80;;
2838;SDS011;1427;48.510;9.060;2023-12-22T11:20:20;45.87;;;3.40;;
2838;SDS011;1427;48.510;9.060;2023-12-22T11:22:50;54.57;;;4.53;;
2838;SDS011;1427;48.510;9.060;2023-12-22T11:25:19;46.83;;;4.17;;
2838;SDS011;1427;48.510;9.060;2023-12-22T11:27:49;46.13;;;3.30;;
2838;SDS011;1427;48.510;9.060;2023-12-22T11:30:21;46.07;;;3.83;;
2838;SDS011;1427;48.510;9.060;2023-12-22T11:32:50;45.87;;;3.60;;
2838;SDS011;1427;48.510;9.060;2023-12-22T11:35:21;47.90;;;5.33;;
2838;SDS011;1427;48.510;9.060;2023-12-22T11:37:58;50.20;;;4.10;;
2838;SDS011;1427;48.510;9.060;2023-12-22T11:40:29;46.20;;;3.73;;
2838;SDS011;1427;48.510;9.060;2023-12-22T11:42:57;46.10;;;3.80;;
2838;SDS011;1427;48.510;9.060;2023-12-22T11:45:31;47.03;;;4.20;;
2838;SDS011;1427;48.510;9.060;2023-12-22T11:48:08;46.53;;;3.80;;
2838;SDS011;1427;48.510;9.060;2023-12-22T11:50:37;49.00;;;4.43;;
2838;SDS011;1427;48.510;9.060;2023-12-22T11:53:18;45.97;;;3.10;;
2838;SDS011;1427;48.510;9.060;2023-12-22T11:55:56;46.23;;;3.37;;
2838;SDS011;1427;48.510;9.060;2023-12-22T11:58:38;46.30;;;4.13;;
2838;SDS011;1427;48.510;9.060;2023-12-22T12:01:09;47.60;;;5.53;;
2838;SDS011;1427;48.510;9.060;2023-12-22T12:03:40;47.20;;;5.17;;
2838;SDS011;1427;48.510;9.060;2023-12-22T12:06:16;51.40;;;3.50;;
2838;SDS011;1427;48.510;9.060;2023-12-22T12:08:49;47.20;;;4.30;;
2838;SDS011;1427;48.510;9.060;2023-12-22T12:11:18;46.90;;;4.30;;
2838;SDS011;1427;48.510;9.060;2023-12-22T12:13:46;46.07;;;4.07;;
2838;SDS011;1427;48.510;9.060;2023-12-22T12:16:18;46.97;;;4.30;;
2838;SDS011;1427;48.510;9.060;2023-12-22T12:18:47;45.97;;;3.37;;
2838;SDS011;1427;48.510;9.060;2023-12-22T12:21:19;46.30;;;3.90;;
2838;SDS011;1427;48.510;9.060;2023-12-22T12:23:47;46.27;;;3.70;;
2838;SDS011;1427;48.510;9.060;2023-12-22T12:26:16;46.17;;;3.77;;
2838;SDS011;1427;48.510;9.060;2023-12-22T12:28:45;46.73;;;4.53;;
2838;SDS011;1427;48.510;9.060;2023-12-22T12:31:15;46.57;;;3.83;;
2838;SDS011;1427;48.510;9.060;2023-12-22T12:33:44;46.20;;;3.97;;
2838;SDS011;1427;48.510;9.060;2023-12-22T12:36:13;52.33;;;5.33;;
2838;SDS011;1427;48.510;9.060;2023-12-22T12:38:45;46.23;;;3.67;;
2838;SDS011;1427;48.510;9.060;2023-12-22T12:41:23;46.57;;;3.80;;
2838;SDS011;1427;48.510;9.060;2023-12-22T12:44:01;46.50;;;3.77;;
2838;SDS011;1427;48.510;9.060;2023-12-22T12:46:33;46.00;;;3.60;;
2838;SDS011;1427;48.510;9.060;2023-12-22T12:49:02;47.17;;;4.27;;
2838;SDS011;1427;48.510;9.060;2023-12-22T12:51:35;46.13;;;3.53;;
2838;SDS011;1427;48.510;9.060;2023-12-22T12:54:04;46.10;;;3.57;;
2838;SDS011;1427;48.510;9.060;2023-12-22T12:56:37;47.80;;;6.20;;
2838;SDS011;1427;48.510;9.060;2023-12-22T12:59:07;46.20;;;3.87;;
2838;SDS011;1427;48.510;9.060;2023-12-22T13:01:40;49.10;;;3.87;;
2838;SDS011;1427;48.510;9.060;2023-12-22T13:04:09;45.53;;;2.97;;
2838;SDS011;1427;48.510;9.060;2023-12-22T13:06:43;46.10;;;3.57;;
2838;SDS011;1427;48.510;9.060;2023-12-22T13:09:11;46.00;;;3.60;;
2838;SDS011;1427;48.510;9.060;2023-12-22T13:11:41;46.10;;;3.60;;
2838;SDS011;1427;48.510;9.060;2023-12-22T13:14:09;46.60;;;4.00;;
2838;SDS011;1427;48.510;9.060;2023-12-22T13:16:39;46.00;;;3.70;;
2838;SDS011;1427;48.510;9.060;2023-12-22T13:19:07;46.50;;;3.50;;
2838;SDS011;1427;48.510;9.060;2023-12-22T13:21:36;46.07;;;3.77;;
2838;SDS011;1427;48.510;9.060;2023-12-22T13:24:07;46.30;;;4.27;;
2838;SDS011;1427;48.510;9.060;2023-12-22T13:26:36;46.30;;;4.33;;
2838;SDS011;1427;48.510;9.060;2023-12-22T13:29:04;46.13;;;3.37;;
2838;SDS011;1427;48.510;9.060;2023-12-22T13:31:33;46.37;;;4.47;;
2838;SDS011;1427;48.510;9.060;2023-12-22T13:34:09;47.57;;;4.30;;
2838;SDS011;1427;48.510;9.060;2023-12-22T13:36:37;48.20;;;5.17;;
2838;SDS011;1427;48.510;9.060;2023-12-22T13:39:06;46.47;;;4.37;;
2838;SDS011;1427;48.510;9.060;2023-12-22T13:41:34;48.07;;;5.50;;
2838;SDS011;1427;48.510;9.060;2023-12-22T13:44:07;47.47;;;4.97;;
2838;SDS011;1427;48.510;9.060;2023-12-22T13:46:35;46.57;;;3.90;;
2838;SDS011;1427;48.510;9.060;2023-12-22T13:49:07;46.63;;;4.03;;
2838;SDS011;1427;48.510;9.060;2023-12-22T13:51:38;47.00;;;4.87;;
2838;SDS011;1427;48.510;9.060;2023-12-22T13:54:07;46.77;;;4.63;;
2838;SDS011;1427;48.510;9.060;2023-12-22T13:56:36;46.00;;;3.40;;
2838;SDS011;1427;48.510;9.060;2023-12-22T13:59:06;46.33;;;4.10;;
2838;SDS011;1427;48.510;9.060;2023-12-22T14:01:35;47.00;;;4.93;;
2838;SDS011;1427;48.510;9.060;2023-12-22T14:04:03;46.17;;;4.00;;
2838;SDS011;1427;48.510;9.060;2023-12-22T14:06:33;46.30;;;3.50;;
2838;SDS011;1427;48.510;9.060;2023-12-22T14:09:01;46.20;;;3.97;;
2838;SDS011;1427;48.510;9.060;2023-12-22T14:11:29;45.90;;;3.87;;
2838;SDS011;1427;48.510;9.060;2023-12-22T14:13:58;47.67;;;5.70;;
2838;SDS011;1427;48.510;9.060;2023-12-22T14:16:27;46.77;;;4.50;;
2838;SDS011;1427;48.510;9.060;2023-12-22T14:18:55;46.53;;;5.00;;
2838;SDS011;1427;48.510;9.060;2023-12-22T14:21:24;47.57;;;6.43;;
2838;SDS011;1427;48.510;9.060;2023-12-22T14:23:53;47.37;;;6.00;;
2838;SDS011;1427;48.510;9.060;2023-12-22T14:26:21;46.57;;;4.60;;
2838;SDS011;1427;48.510;9.060;2023-12-22T14:28:49;45.00;;;2.00;;
2838;SDS011;1427;48.510;9.060;2023-12-22T14:31:18;45.77;;;2.87;;
2838;SDS011;1427;48.510;9.060;2023-12-22T14:33:47;44.60;;;1.47;;
2838;SDS011;1427;48.510;9.060;2023-12-22T14:36:15;44.90;;;1.93;;
2838;SDS011;1427;48.510;9.060;2023-12-22T14:38:44;44.30;;;1.30;;
2838;SDS011;1427;48.510;9.060;2023-12-22T14:41:13;44.80;;;1.60;;
2838;SDS011;1427;48.510;9.060;2023-12-22T14:43:41;45.27;;;1.70;;
2838;SDS011;1427;48.510;9.060;2023-12-22T14:46:09;45.07;;;1.50;;
2838;SDS011;1427;48.510;9.060;2023-12-22T14:48:36;45.53;;;2.60;;
2838;SDS011;1427;48.510;9.060;2023-12-22T14:51:05;44.97;;;1.57;;
2838;SDS011;1427;48.510;9.060;2023-12-22T14:53:33;45.50;;;1.77;;
2838;SDS011;1427;48.510;9.060;2023-12-22T14:56:01;44.80;;;1.30;;
2838;SDS011;1427;48.510;9.060;2023-12-22T14:58:30;46.50;;;1.90;;
2838;SDS011;1427;48.510;9.060;2023-12-22T15:01:00;45.47;;;2.10;;
2838;SDS011;1427;48.510;9.060;2023-12-22T15:03:28;49.27;;;2.17;;
2838;SDS011;1427;48.510;9.060;2023-12-22T15:05:56;48.20;;;1.90;;
2838;SDS011;1427;48.510;9.060;2023-12-22T15:08:25;46.53;;;3.10;;
2838;SDS011;1427;48.510;9.060;2023-12-22T15:10:53;45.40;;;2.10;;
2838;SDS011;1427;48.510;9.060;2023-12-22T15:13:21;44.73;;;1.77;;